Silver Cloud — C6MQ5 — position and weather

sailwx.info

Track history (hours):
 
Tides and Currents Weather Stations Pressure Air Temp Water Temp Dewpoint Dewpoint Depression Visibility Wind Speed Wind Dir Waves Ship Positions

Silver Cloud

Operator: V Ships Leisure SAM

Last reported at 2016-Oct-30 00:33 UTC. Time now 2016-Dec-03 13:43 UTC.
Position N 32°20' E 034°37'.
Warning: this ship's position is 34 days out of date.

Length 156 m; draft 5.7 m.

Type: Passenger vessel. MMSI: 309027000.

Date/timePositionNaut miles runAvg speedWind from/ knotsBaromVisibWave heightAir tempDewpointWater temp
2016-Oct-30 00:33N 32°20' E 034°37'1010.4
2016-Oct-29 23:33N 32°30' E 034°41'1010.4
2016-Oct-29 22:33N 32°40' E 034°44'1010.4
2016-Oct-29 21:33N 32°50' E 034°47'9 9.3
2016-Oct-29 20:33N 32°52' E 034°58'4 3.5
2016-Oct-29 19:31N 32°49' E 035°00'0 0.0
2016-Oct-29 18:31N 32°49' E 035°00'0 0.0
2016-Oct-29 16:31N 32°49' E 035°00'0 0.0
2016-Oct-29 14:31N 32°49' E 035°00'0 0.0
2016-Oct-29 11:31N 32°49' E 035°00'0 0.0
2016-Oct-29 09:31N 32°49' E 035°00'0 0.0
2016-Oct-29 06:31N 32°49' E 035°00'0 0.0
2016-Oct-29 04:31N 32°49' E 035°00'5 2.7
2016-Oct-29 02:33N 32°52' E 034°55'3913.1
2016-Oct-28 23:34N 32°60' E 034°09'10513.2
2016-Oct-28 15:33N 34°33' E 033°10'10 9.7
2016-Oct-28 14:33N 34°39' E 033°01'0 0.0
2016-Oct-28 09:33N 34°39' E 033°01'0 0.0
2016-Oct-28 08:33N 34°39' E 033°01'0 0.0
2016-Oct-28 07:33N 34°39' E 033°01'21 3.0
2016-Oct-28 00:33N 34°36' E 032°36'  
2016-Oct-24 13:33N 37°56' E 023°38'0 0.0
2016-Oct-24 07:32N 37°56' E 023°38'0 0.0
2016-Oct-24 06:30N 37°56' E 023°38'0 0.0
2016-Oct-24 05:29N 37°56' E 023°38'0 0.0
2016-Oct-24 04:29N 37°56' E 023°38'17 5.8
2016-Oct-24 01:33N 37°40' E 023°45'3611.4
2016-Oct-23 22:27N 37°10' E 023°22'37 2.5
2016-Oct-23 07:30N 37°34' E 022°47'0 0.0
2016-Oct-23 05:32N 37°34' E 022°47'7 3.1
2016-Oct-23 03:15N 37°27' E 022°50'1210.2
2016-Oct-23 02:04N 37°17' E 022°58'2610.2
2016-Oct-22 23:33N 36°54' E 023°13'  
Track history (hours):
 
Tides and Currents Weather Stations Pressure Air Temp Water Temp Dewpoint Dewpoint Depression Visibility Wind Speed Wind Dir Waves Ship Positions

Silver Cloud

Operator: V Ships Leisure SAM

Last reported at 2016-Oct-30 00:33 UTC. Time now 2016-Dec-03 13:43 UTC.
Position N 32°20' E 034°37'.
Warning: this ship's position is 34 days out of date.

Length 156 m; draft 5.7 m.

Type: Passenger vessel. MMSI: 309027000.

Date/timePositionNaut miles runAvg speedWind from/ knotsBaromVisibWave heightAir tempDewpointWater temp
2016-Oct-30 00:33N 32°20' E 034°37'1010.4
2016-Oct-29 23:33N 32°30' E 034°41'1010.4
2016-Oct-29 22:33N 32°40' E 034°44'1010.4
2016-Oct-29 21:33N 32°50' E 034°47'9 9.3
2016-Oct-29 20:33N 32°52' E 034°58'4 3.5
2016-Oct-29 19:31N 32°49' E 035°00'0 0.0
2016-Oct-29 18:31N 32°49' E 035°00'0 0.0
2016-Oct-29 16:31N 32°49' E 035°00'0 0.0
2016-Oct-29 14:31N 32°49' E 035°00'0 0.0
2016-Oct-29 11:31N 32°49' E 035°00'0 0.0
2016-Oct-29 09:31N 32°49' E 035°00'0 0.0
2016-Oct-29 06:31N 32°49' E 035°00'0 0.0
2016-Oct-29 04:31N 32°49' E 035°00'5 2.7
2016-Oct-29 02:33N 32°52' E 034°55'3913.1
2016-Oct-28 23:34N 32°60' E 034°09'10513.2
2016-Oct-28 15:33N 34°33' E 033°10'10 9.7
2016-Oct-28 14:33N 34°39' E 033°01'0 0.0
2016-Oct-28 09:33N 34°39' E 033°01'0 0.0
2016-Oct-28 08:33N 34°39' E 033°01'0 0.0
2016-Oct-28 07:33N 34°39' E 033°01'21 3.0
2016-Oct-28 00:33N 34°36' E 032°36'  
2016-Oct-24 13:33N 37°56' E 023°38'0 0.0
2016-Oct-24 07:32N 37°56' E 023°38'0 0.0
2016-Oct-24 06:30N 37°56' E 023°38'0 0.0
2016-Oct-24 05:29N 37°56' E 023°38'0 0.0
2016-Oct-24 04:29N 37°56' E 023°38'17 5.8
2016-Oct-24 01:33N 37°40' E 023°45'3611.4
2016-Oct-23 22:27N 37°10' E 023°22'37 2.5
2016-Oct-23 07:30N 37°34' E 022°47'0 0.0
2016-Oct-23 05:32N 37°34' E 022°47'7 3.1
2016-Oct-23 03:15N 37°27' E 022°50'1210.2
2016-Oct-23 02:04N 37°17' E 022°58'2610.2
2016-Oct-22 23:33N 36°54' E 023°13'  

Dump ship's entire track history